sensor_id;sensor_type;location;lat;lon;timestamp;P1;durP1;ratioP1;P2;durP2;ratioP2
29484;SDS011;16440;59.494;17.978;2022-07-17T00:00:48;1.08;;;0.60;;
29484;SDS011;16440;59.494;17.978;2022-07-17T00:03:16;0.95;;;0.60;;
29484;SDS011;16440;59.494;17.978;2022-07-17T00:05:44;0.50;;;0.50;;
29484;SDS011;16440;59.494;17.978;2022-07-17T00:08:12;0.60;;;0.50;;
29484;SDS011;16440;59.494;17.978;2022-07-17T00:10:42;1.00;;;0.60;;
29484;SDS011;16440;59.494;17.978;2022-07-17T00:13:10;2.35;;;0.60;;
29484;SDS011;16440;59.494;17.978;2022-07-17T00:15:38;0.50;;;0.50;;
29484;SDS011;16440;59.494;17.978;2022-07-17T00:18:07;0.70;;;0.60;;
29484;SDS011;16440;59.494;17.978;2022-07-17T00:20:35;0.55;;;0.50;;
29484;SDS011;16440;59.494;17.978;2022-07-17T00:23:03;0.65;;;0.60;;
29484;SDS011;16440;59.494;17.978;2022-07-17T00:25:31;0.50;;;0.50;;
29484;SDS011;16440;59.494;17.978;2022-07-17T00:27:59;0.50;;;0.50;;
29484;SDS011;16440;59.494;17.978;2022-07-17T00:30:27;0.50;;;0.50;;
29484;SDS011;16440;59.494;17.978;2022-07-17T00:32:56;1.42;;;0.50;;
29484;SDS011;16440;59.494;17.978;2022-07-17T00:37:54;2.05;;;0.60;;
29484;SDS011;16440;59.494;17.978;2022-07-17T00:40:23;2.15;;;0.55;;
29484;SDS011;16440;59.494;17.978;2022-07-17T00:42:52;3.03;;;0.60;;
29484;SDS011;16440;59.494;17.978;2022-07-17T00:45:20;0.50;;;0.50;;
29484;SDS011;16440;59.494;17.978;2022-07-17T00:47:51;0.82;;;0.55;;
29484;SDS011;16440;59.494;17.978;2022-07-17T00:50:21;1.05;;;0.50;;
29484;SDS011;16440;59.494;17.978;2022-07-17T00:52:50;0.50;;;0.50;;
29484;SDS011;16440;59.494;17.978;2022-07-17T00:55:18;0.50;;;0.50;;
29484;SDS011;16440;59.494;17.978;2022-07-17T00:57:47;0.50;;;0.50;;
29484;SDS011;16440;59.494;17.978;2022-07-17T01:03:31;0.50;;;0.50;;
29484;SDS011;16440;59.494;17.978;2022-07-17T01:05:59;1.98;;;0.60;;
29484;SDS011;16440;59.494;17.978;2022-07-17T01:08:27;0.50;;;0.50;;
29484;SDS011;16440;59.494;17.978;2022-07-17T01:10:55;0.50;;;0.50;;
29484;SDS011;16440;59.494;17.978;2022-07-17T01:13:23;0.50;;;0.50;;
29484;SDS011;16440;59.494;17.978;2022-07-17T01:15:52;0.40;;;0.40;;
29484;SDS011;16440;59.494;17.978;2022-07-17T01:18:20;0.65;;;0.60;;
29484;SDS011;16440;59.494;17.978;2022-07-17T01:20:50;0.93;;;0.60;;
29484;SDS011;16440;59.494;17.978;2022-07-17T01:23:20;2.55;;;0.70;;
29484;SDS011;16440;59.494;17.978;2022-07-17T01:25:48;0.52;;;0.50;;
29484;SDS011;16440;59.494;17.978;2022-07-17T01:28:18;1.12;;;0.50;;
29484;SDS011;16440;59.494;17.978;2022-07-17T01:30:47;1.67;;;0.50;;
29484;SDS011;16440;59.494;17.978;2022-07-17T01:33:16;0.50;;;0.50;;
29484;SDS011;16440;59.494;17.978;2022-07-17T01:35:44;0.65;;;0.60;;
29484;SDS011;16440;59.494;17.978;2022-07-17T01:38:13;3.47;;;0.70;;
29484;SDS011;16440;59.494;17.978;2022-07-17T01:40:42;0.50;;;0.50;;
29484;SDS011;16440;59.494;17.978;2022-07-17T01:43:10;1.23;;;0.70;;
29484;SDS011;16440;59.494;17.978;2022-07-17T01:45:38;0.77;;;0.50;;
29484;SDS011;16440;59.494;17.978;2022-07-17T01:48:07;1.12;;;0.50;;
29484;SDS011;16440;59.494;17.978;2022-07-17T01:50:35;0.40;;;0.40;;
29484;SDS011;16440;59.494;17.978;2022-07-17T01:53:03;0.90;;;0.70;;
29484;SDS011;16440;59.494;17.978;2022-07-17T01:55:31;0.50;;;0.50;;
29484;SDS011;16440;59.494;17.978;2022-07-17T01:58:00;0.85;;;0.60;;
29484;SDS011;16440;59.494;17.978;2022-07-17T02:00:28;1.05;;;0.60;;
29484;SDS011;16440;59.494;17.978;2022-07-17T02:02:56;1.15;;;0.60;;
29484;SDS011;16440;59.494;17.978;2022-07-17T02:05:24;0.60;;;0.57;;
29484;SDS011;16440;59.494;17.978;2022-07-17T02:07:50;0.50;;;0.50;;
29484;SDS011;16440;59.494;17.978;2022-07-17T02:10:18;0.57;;;0.52;;
29484;SDS011;16440;59.494;17.978;2022-07-17T02:12:46;0.50;;;0.50;;
29484;SDS011;16440;59.494;17.978;2022-07-17T02:15:15;0.75;;;0.50;;
29484;SDS011;16440;59.494;17.978;2022-07-17T02:17:43;0.50;;;0.50;;
29484;SDS011;16440;59.494;17.978;2022-07-17T02:20:12;0.50;;;0.50;;
29484;SDS011;16440;59.494;17.978;2022-07-17T02:22:40;0.60;;;0.60;;
29484;SDS011;16440;59.494;17.978;2022-07-17T02:25:08;0.60;;;0.55;;
29484;SDS011;16440;59.494;17.978;2022-07-17T02:27:37;0.70;;;0.60;;
29484;SDS011;16440;59.494;17.978;2022-07-17T02:30:07;0.68;;;0.60;;
29484;SDS011;16440;59.494;17.978;2022-07-17T02:32:38;1.00;;;0.70;;
29484;SDS011;16440;59.494;17.978;2022-07-17T02:35:08;8.23;;;0.82;;
29484;SDS011;16440;59.494;17.978;2022-07-17T02:37:37;2.85;;;0.70;;
29484;SDS011;16440;59.494;17.978;2022-07-17T02:40:07;0.98;;;0.60;;
29484;SDS011;16440;59.494;17.978;2022-07-17T02:42:36;0.52;;;0.52;;
29484;SDS011;16440;59.494;17.978;2022-07-17T02:45:05;0.70;;;0.70;;
29484;SDS011;16440;59.494;17.978;2022-07-17T02:47:34;0.75;;;0.50;;
29484;SDS011;16440;59.494;17.978;2022-07-17T02:50:04;1.55;;;0.60;;
29484;SDS011;16440;59.494;17.978;2022-07-17T02:52:34;0.50;;;0.50;;
29484;SDS011;16440;59.494;17.978;2022-07-17T02:55:03;0.70;;;0.60;;
29484;SDS011;16440;59.494;17.978;2022-07-17T02:57:31;0.40;;;0.40;;
29484;SDS011;16440;59.494;17.978;2022-07-17T02:59:59;0.50;;;0.50;;
29484;SDS011;16440;59.494;17.978;2022-07-17T03:02:27;0.50;;;0.50;;
29484;SDS011;16440;59.494;17.978;2022-07-17T03:04:55;0.77;;;0.68;;
29484;SDS011;16440;59.494;17.978;2022-07-17T03:07:25;0.50;;;0.50;;
29484;SDS011;16440;59.494;17.978;2022-07-17T03:09:53;0.75;;;0.50;;
29484;SDS011;16440;59.494;17.978;2022-07-17T03:12:21;0.60;;;0.60;;
29484;SDS011;16440;59.494;17.978;2022-07-17T03:14:49;2.42;;;0.60;;
29484;SDS011;16440;59.494;17.978;2022-07-17T03:17:17;0.70;;;0.50;;
29484;SDS011;16440;59.494;17.978;2022-07-17T03:19:45;0.95;;;0.50;;
29484;SDS011;16440;59.494;17.978;2022-07-17T03:22:13;0.50;;;0.50;;
29484;SDS011;16440;59.494;17.978;2022-07-17T03:24:43;0.50;;;0.50;;
29484;SDS011;16440;59.494;17.978;2022-07-17T03:27:11;0.40;;;0.40;;
29484;SDS011;16440;59.494;17.978;2022-07-17T03:29:40;0.50;;;0.50;;
29484;SDS011;16440;59.494;17.978;2022-07-17T03:32:08;0.55;;;0.50;;
29484;SDS011;16440;59.494;17.978;2022-07-17T03:35:32;0.60;;;0.60;;
29484;SDS011;16440;59.494;17.978;2022-07-17T03:38:00;0.57;;;0.50;;
29484;SDS011;16440;59.494;17.978;2022-07-17T03:40:30;0.60;;;0.60;;
29484;SDS011;16440;59.494;17.978;2022-07-17T03:42:58;6.28;;;0.77;;
29484;SDS011;16440;59.494;17.978;2022-07-17T03:47:51;0.60;;;0.50;;
29484;SDS011;16440;59.494;17.978;2022-07-17T03:50:19;2.12;;;0.55;;
29484;SDS011;16440;59.494;17.978;2022-07-17T03:52:47;0.60;;;0.60;;
29484;SDS011;16440;59.494;17.978;2022-07-17T03:55:15;0.57;;;0.57;;
29484;SDS011;16440;59.494;17.978;2022-07-17T03:57:45;0.60;;;0.60;;
29484;SDS011;16440;59.494;17.978;2022-07-17T04:00:13;1.02;;;0.55;;
29484;SDS011;16440;59.494;17.978;2022-07-17T04:02:41;0.50;;;0.50;;
29484;SDS011;16440;59.494;17.978;2022-07-17T04:05:10;0.50;;;0.50;;
29484;SDS011;16440;59.494;17.978;2022-07-17T04:07:38;0.60;;;0.60;;
29484;SDS011;16440;59.494;17.978;2022-07-17T04:10:07;0.60;;;0.60;;
29484;SDS011;16440;59.494;17.978;2022-07-17T04:12:37;1.77;;;0.52;;
29484;SDS011;16440;59.494;17.978;2022-07-17T04:15:08;0.50;;;0.50;;
29484;SDS011;16440;59.494;17.978;2022-07-17T04:17:37;0.50;;;0.50;;
29484;SDS011;16440;59.494;17.978;2022-07-17T04:20:05;2.55;;;0.68;;
29484;SDS011;16440;59.494;17.978;2022-07-17T04:22:34;0.90;;;0.50;;
29484;SDS011;16440;59.494;17.978;2022-07-17T04:25:02;0.50;;;0.50;;
29484;SDS011;16440;59.494;17.978;2022-07-17T04:27:30;1.65;;;0.55;;
29484;SDS011;16440;59.494;17.978;2022-07-17T04:29:58;1.67;;;0.60;;
29484;SDS011;16440;59.494;17.978;2022-07-17T04:32:27;1.37;;;0.60;;
29484;SDS011;16440;59.494;17.978;2022-07-17T04:34:55;0.65;;;0.50;;
29484;SDS011;16440;59.494;17.978;2022-07-17T04:37:23;0.40;;;0.40;;
29484;SDS011;16440;59.494;17.978;2022-07-17T04:39:51;1.70;;;0.60;;
29484;SDS011;16440;59.494;17.978;2022-07-17T04:42:19;0.40;;;0.40;;
29484;SDS011;16440;59.494;17.978;2022-07-17T04:44:50;0.40;;;0.40;;
29484;SDS011;16440;59.494;17.978;2022-07-17T04:47:18;0.30;;;0.30;;
29484;SDS011;16440;59.494;17.978;2022-07-17T04:49:47;0.50;;;0.50;;
29484;SDS011;16440;59.494;17.978;2022-07-17T04:52:15;2.78;;;0.50;;
29484;SDS011;16440;59.494;17.978;2022-07-17T04:54:43;0.50;;;0.40;;
29484;SDS011;16440;59.494;17.978;2022-07-17T04:57:11;0.40;;;0.40;;
29484;SDS011;16440;59.494;17.978;2022-07-17T04:59:39;0.40;;;0.40;;
29484;SDS011;16440;59.494;17.978;2022-07-17T05:02:07;0.43;;;0.43;;
29484;SDS011;16440;59.494;17.978;2022-07-17T05:04:35;0.40;;;0.40;;
29484;SDS011;16440;59.494;17.978;2022-07-17T05:07:04;0.40;;;0.40;;
29484;SDS011;16440;59.494;17.978;2022-07-17T05:09:32;0.35;;;0.35;;
29484;SDS011;16440;59.494;17.978;2022-07-17T05:12:00;0.40;;;0.40;;
29484;SDS011;16440;59.494;17.978;2022-07-17T05:14:28;0.65;;;0.40;;
29484;SDS011;16440;59.494;17.978;2022-07-17T05:16:56;1.42;;;0.43;;
29484;SDS011;16440;59.494;17.978;2022-07-17T05:19:24;0.50;;;0.50;;
29484;SDS011;16440;59.494;17.978;2022-07-17T05:21:50;0.45;;;0.40;;
29484;SDS011;16440;59.494;17.978;2022-07-17T05:24:20;1.12;;;0.50;;
29484;SDS011;16440;59.494;17.978;2022-07-17T05:26:48;0.43;;;0.43;;
29484;SDS011;16440;59.494;17.978;2022-07-17T05:29:16;0.37;;;0.37;;
29484;SDS011;16440;59.494;17.978;2022-07-17T05:31:44;0.40;;;0.40;;
29484;SDS011;16440;59.494;17.978;2022-07-17T05:34:12;0.37;;;0.37;;
29484;SDS011;16440;59.494;17.978;2022-07-17T05:36:40;0.95;;;0.40;;
29484;SDS011;16440;59.494;17.978;2022-07-17T05:39:08;0.40;;;0.40;;
29484;SDS011;16440;59.494;17.978;2022-07-17T05:41:37;1.27;;;0.50;;
29484;SDS011;16440;59.494;17.978;2022-07-17T05:44:05;0.82;;;0.50;;
29484;SDS011;16440;59.494;17.978;2022-07-17T05:46:33;1.37;;;0.50;;
29484;SDS011;16440;59.494;17.978;2022-07-17T05:49:01;0.40;;;0.40;;
29484;SDS011;16440;59.494;17.978;2022-07-17T05:51:29;0.43;;;0.40;;
29484;SDS011;16440;59.494;17.978;2022-07-17T05:53:57;0.68;;;0.40;;
29484;SDS011;16440;59.494;17.978;2022-07-17T05:56:25;0.40;;;0.40;;
29484;SDS011;16440;59.494;17.978;2022-07-17T05:58:54;0.30;;;0.30;;
29484;SDS011;16440;59.494;17.978;2022-07-17T06:01:22;0.30;;;0.30;;
29484;SDS011;16440;59.494;17.978;2022-07-17T06:03:50;0.60;;;0.32;;
29484;SDS011;16440;59.494;17.978;2022-07-17T06:06:18;0.60;;;0.40;;
29484;SDS011;16440;59.494;17.978;2022-07-17T06:08:46;1.37;;;0.30;;
29484;SDS011;16440;59.494;17.978;2022-07-17T06:11:14;1.58;;;0.50;;
29484;SDS011;16440;59.494;17.978;2022-07-17T06:13:42;1.23;;;0.43;;
29484;SDS011;16440;59.494;17.978;2022-07-17T06:16:11;0.40;;;0.40;;
29484;SDS011;16440;59.494;17.978;2022-07-17T06:18:39;0.40;;;0.40;;
29484;SDS011;16440;59.494;17.978;2022-07-17T06:21:07;0.40;;;0.40;;
29484;SDS011;16440;59.494;17.978;2022-07-17T06:23:35;1.08;;;0.50;;
29484;SDS011;16440;59.494;17.978;2022-07-17T06:26:06;2.50;;;0.40;;
29484;SDS011;16440;59.494;17.978;2022-07-17T06:28:34;0.40;;;0.40;;
29484;SDS011;16440;59.494;17.978;2022-07-17T06:31:04;0.43;;;0.40;;
29484;SDS011;16440;59.494;17.978;2022-07-17T06:33:34;0.37;;;0.37;;
29484;SDS011;16440;59.494;17.978;2022-07-17T06:36:02;0.40;;;0.40;;
29484;SDS011;16440;59.494;17.978;2022-07-17T06:38:31;0.50;;;0.40;;
29484;SDS011;16440;59.494;17.978;2022-07-17T06:40:59;0.70;;;0.68;;
29484;SDS011;16440;59.494;17.978;2022-07-17T06:43:28;0.52;;;0.40;;
29484;SDS011;16440;59.494;17.978;2022-07-17T06:45:56;0.60;;;0.40;;
29484;SDS011;16440;59.494;17.978;2022-07-17T06:48:24;0.40;;;0.40;;
29484;SDS011;16440;59.494;17.978;2022-07-17T06:50:52;0.73;;;0.40;;
29484;SDS011;16440;59.494;17.978;2022-07-17T06:53:20;0.43;;;0.43;;
29484;SDS011;16440;59.494;17.978;2022-07-17T06:55:48;0.32;;;0.32;;
29484;SDS011;16440;59.494;17.978;2022-07-17T06:58:16;0.40;;;0.40;;
29484;SDS011;16440;59.494;17.978;2022-07-17T07:00:44;0.40;;;0.40;;
29484;SDS011;16440;59.494;17.978;2022-07-17T07:03:12;0.30;;;0.30;;
29484;SDS011;16440;59.494;17.978;2022-07-17T07:05:42;0.37;;;0.37;;
29484;SDS011;16440;59.494;17.978;2022-07-17T07:08:12;0.30;;;0.30;;
29484;SDS011;16440;59.494;17.978;2022-07-17T07:10:43;0.80;;;0.30;;
29484;SDS011;16440;59.494;17.978;2022-07-17T07:13:12;0.30;;;0.30;;
29484;SDS011;16440;59.494;17.978;2022-07-17T07:15:40;0.30;;;0.30;;
29484;SDS011;16440;59.494;17.978;2022-07-17T07:18:08;0.43;;;0.30;;
29484;SDS011;16440;59.494;17.978;2022-07-17T07:20:36;1.80;;;0.30;;
29484;SDS011;16440;59.494;17.978;2022-07-17T07:23:04;0.75;;;0.30;;
29484;SDS011;16440;59.494;17.978;2022-07-17T07:25:33;0.40;;;0.30;;
29484;SDS011;16440;59.494;17.978;2022-07-17T07:28:02;0.40;;;0.40;;
29484;SDS011;16440;59.494;17.978;2022-07-17T07:30:30;0.30;;;0.30;;
29484;SDS011;16440;59.494;17.978;2022-07-17T07:32:58;0.30;;;0.30;;
29484;SDS011;16440;59.494;17.978;2022-07-17T07:35:26;0.30;;;0.30;;
29484;SDS011;16440;59.494;17.978;2022-07-17T07:37:54;0.40;;;0.30;;
29484;SDS011;16440;59.494;17.978;2022-07-17T07:40:22;0.30;;;0.30;;
29484;SDS011;16440;59.494;17.978;2022-07-17T07:42:52;0.32;;;0.30;;
29484;SDS011;16440;59.494;17.978;2022-07-17T07:45:20;0.30;;;0.30;;
29484;SDS011;16440;59.494;17.978;2022-07-17T07:47:49;0.40;;;0.30;;
29484;SDS011;16440;59.494;17.978;2022-07-17T07:50:17;0.30;;;0.30;;
29484;SDS011;16440;59.494;17.978;2022-07-17T07:52:49;0.30;;;0.30;;
29484;SDS011;16440;59.494;17.978;2022-07-17T07:55:17;0.30;;;0.30;;
29484;SDS011;16440;59.494;17.978;2022-07-17T07:57:46;0.70;;;0.40;;
29484;SDS011;16440;59.494;17.978;2022-07-17T08:00:16;0.30;;;0.30;;
29484;SDS011;16440;59.494;17.978;2022-07-17T08:02:44;0.30;;;0.30;;
29484;SDS011;16440;59.494;17.978;2022-07-17T08:05:12;0.40;;;0.40;;
29484;SDS011;16440;59.494;17.978;2022-07-17T08:07:40;0.30;;;0.30;;
29484;SDS011;16440;59.494;17.978;2022-07-17T08:10:08;0.30;;;0.30;;
29484;SDS011;16440;59.494;17.978;2022-07-17T08:12:36;0.30;;;0.30;;
29484;SDS011;16440;59.494;17.978;2022-07-17T08:15:04;1.95;;;0.30;;
29484;SDS011;16440;59.494;17.978;2022-07-17T08:17:34;0.30;;;0.30;;
29484;SDS011;16440;59.494;17.978;2022-07-17T08:20:02;0.30;;;0.30;;
29484;SDS011;16440;59.494;17.978;2022-07-17T08:22:32;0.37;;;0.37;;
29484;SDS011;16440;59.494;17.978;2022-07-17T08:25:00;0.30;;;0.30;;
29484;SDS011;16440;59.494;17.978;2022-07-17T08:27:28;0.40;;;0.30;;
29484;SDS011;16440;59.494;17.978;2022-07-17T08:30:02;0.30;;;0.30;;
29484;SDS011;16440;59.494;17.978;2022-07-17T08:32:31;0.30;;;0.30;;
29484;SDS011;16440;59.494;17.978;2022-07-17T08:35:01;0.30;;;0.30;;
29484;SDS011;16440;59.494;17.978;2022-07-17T08:37:29;0.30;;;0.30;;
29484;SDS011;16440;59.494;17.978;2022-07-17T08:39:57;0.30;;;0.30;;
29484;SDS011;16440;59.494;17.978;2022-07-17T08:42:26;1.65;;;0.35;;
29484;SDS011;16440;59.494;17.978;2022-07-17T08:44:57;0.22;;;0.22;;
29484;SDS011;16440;59.494;17.978;2022-07-17T08:47:24;0.30;;;0.30;;
29484;SDS011;16440;59.494;17.978;2022-07-17T08:49:54;0.30;;;0.30;;
29484;SDS011;16440;59.494;17.978;2022-07-17T08:52:23;0.30;;;0.30;;
29484;SDS011;16440;59.494;17.978;2022-07-17T08:54:50;0.20;;;0.20;;
29484;SDS011;16440;59.494;17.978;2022-07-17T08:57:18;1.85;;;0.30;;
29484;SDS011;16440;59.494;17.978;2022-07-17T08:59:47;0.40;;;0.30;;
29484;SDS011;16440;59.494;17.978;2022-07-17T09:02:15;0.20;;;0.20;;
29484;SDS011;16440;59.494;17.978;2022-07-17T09:04:43;0.20;;;0.20;;
29484;SDS011;16440;59.494;17.978;2022-07-17T09:07:21;0.68;;;0.30;;
29484;SDS011;16440;59.494;17.978;2022-07-17T09:09:49;0.30;;;0.30;;
29484;SDS011;16440;59.494;17.978;2022-07-17T09:12:23;0.45;;;0.45;;
29484;SDS011;16440;59.494;17.978;2022-07-17T09:14:50;0.30;;;0.30;;
29484;SDS011;16440;59.494;17.978;2022-07-17T09:17:18;2.20;;;0.30;;
29484;SDS011;16440;59.494;17.978;2022-07-17T09:19:47;2.80;;;0.30;;
29484;SDS011;16440;59.494;17.978;2022-07-17T09:22:17;1.85;;;0.30;;
29484;SDS011;16440;59.494;17.978;2022-07-17T09:24:51;0.28;;;0.28;;
29484;SDS011;16440;59.494;17.978;2022-07-17T09:29:51;0.30;;;0.28;;
29484;SDS011;16440;59.494;17.978;2022-07-17T09:32:21;0.45;;;0.37;;
29484;SDS011;16440;59.494;17.978;2022-07-17T09:34:50;0.30;;;0.30;;
29484;SDS011;16440;59.494;17.978;2022-07-17T09:37:22;0.20;;;0.20;;
29484;SDS011;16440;59.494;17.978;2022-07-17T09:39:50;0.27;;;0.27;;
29484;SDS011;16440;59.494;17.978;2022-07-17T09:42:23;0.30;;;0.30;;
29484;SDS011;16440;59.494;17.978;2022-07-17T09:44:56;0.30;;;0.30;;
29484;SDS011;16440;59.494;17.978;2022-07-17T09:47:25;0.20;;;0.20;;
29484;SDS011;16440;59.494;17.978;2022-07-17T09:49:56;1.48;;;0.30;;
29484;SDS011;16440;59.494;17.978;2022-07-17T09:52:25;0.30;;;0.30;;
29484;SDS011;16440;59.494;17.978;2022-07-17T09:54:56;0.28;;;0.22;;
29484;SDS011;16440;59.494;17.978;2022-07-17T09:57:25;1.58;;;0.30;;
29484;SDS011;16440;59.494;17.978;2022-07-17T09:59:58;0.22;;;0.22;;
29484;SDS011;16440;59.494;17.978;2022-07-17T10:02:27;0.75;;;0.30;;
29484;SDS011;16440;59.494;17.978;2022-07-17T10:04:57;0.30;;;0.30;;
29484;SDS011;16440;59.494;17.978;2022-07-17T10:09:55;0.40;;;0.40;;
29484;SDS011;16440;59.494;17.978;2022-07-17T10:12:26;0.50;;;0.40;;
29484;SDS011;16440;59.494;17.978;2022-07-17T10:14:55;0.30;;;0.30;;
29484;SDS011;16440;59.494;17.978;2022-07-17T10:17:23;0.68;;;0.40;;
29484;SDS011;16440;59.494;17.978;2022-07-17T10:19:52;1.05;;;0.30;;
29484;SDS011;16440;59.494;17.978;2022-07-17T10:22:22;3.20;;;0.30;;
29484;SDS011;16440;59.494;17.978;2022-07-17T10:24:52;1.05;;;0.40;;
29484;SDS011;16440;59.494;17.978;2022-07-17T10:27:22;0.25;;;0.25;;
29484;SDS011;16440;59.494;17.978;2022-07-17T10:30:00;0.30;;;0.30;;
29484;SDS011;16440;59.494;17.978;2022-07-17T10:32:29;0.30;;;0.30;;
29484;SDS011;16440;59.494;17.978;2022-07-17T10:34:58;0.50;;;0.30;;
29484;SDS011;16440;59.494;17.978;2022-07-17T10:37:30;0.47;;;0.40;;
29484;SDS011;16440;59.494;17.978;2022-07-17T10:42:37;0.32;;;0.32;;
29484;SDS011;16440;59.494;17.978;2022-07-17T10:45:10;0.22;;;0.22;;
29484;SDS011;16440;59.494;17.978;2022-07-17T10:47:42;0.47;;;0.30;;
29484;SDS011;16440;59.494;17.978;2022-07-17T10:50:12;0.37;;;0.30;;
29484;SDS011;16440;59.494;17.978;2022-07-17T10:52:41;0.55;;;0.32;;
29484;SDS011;16440;59.494;17.978;2022-07-17T10:55:22;0.28;;;0.28;;
29484;SDS011;16440;59.494;17.978;2022-07-17T10:57:50;0.30;;;0.30;;
29484;SDS011;16440;59.494;17.978;2022-07-17T11:00:19;0.30;;;0.20;;
29484;SDS011;16440;59.494;17.978;2022-07-17T11:02:50;4.18;;;0.32;;
29484;SDS011;16440;59.494;17.978;2022-07-17T11:05:18;0.20;;;0.20;;
29484;SDS011;16440;59.494;17.978;2022-07-17T11:07:51;0.30;;;0.30;;
29484;SDS011;16440;59.494;17.978;2022-07-17T11:10:23;0.30;;;0.30;;
29484;SDS011;16440;59.494;17.978;2022-07-17T11:12:53;0.45;;;0.40;;
29484;SDS011;16440;59.494;17.978;2022-07-17T11:15:22;0.45;;;0.30;;
29484;SDS011;16440;59.494;17.978;2022-07-17T11:17:50;2.97;;;0.40;;
29484;SDS011;16440;59.494;17.978;2022-07-17T11:20:18;0.50;;;0.40;;
29484;SDS011;16440;59.494;17.978;2022-07-17T11:22:46;0.25;;;0.22;;
29484;SDS011;16440;59.494;17.978;2022-07-17T11:27:53;2.50;;;0.35;;
29484;SDS011;16440;59.494;17.978;2022-07-17T11:30:21;1.30;;;0.40;;
29484;SDS011;16440;59.494;17.978;2022-07-17T11:32:50;0.52;;;0.30;;
29484;SDS011;16440;59.494;17.978;2022-07-17T11:35:19;1.45;;;0.30;;
29484;SDS011;16440;59.494;17.978;2022-07-17T11:37:48;0.77;;;0.30;;
29484;SDS011;16440;59.494;17.978;2022-07-17T11:40:16;1.02;;;0.30;;
29484;SDS011;16440;59.494;17.978;2022-07-17T11:42:45;0.30;;;0.30;;
29484;SDS011;16440;59.494;17.978;2022-07-17T11:45:15;1.12;;;0.20;;
29484;SDS011;16440;59.494;17.978;2022-07-17T11:47:46;0.30;;;0.30;;
29484;SDS011;16440;59.494;17.978;2022-07-17T11:50:14;0.65;;;0.30;;
29484;SDS011;16440;59.494;17.978;2022-07-17T11:52:44;0.30;;;0.30;;
29484;SDS011;16440;59.494;17.978;2022-07-17T11:55:14;0.30;;;0.30;;
29484;SDS011;16440;59.494;17.978;2022-07-17T11:57:44;0.40;;;0.30;;
29484;SDS011;16440;59.494;17.978;2022-07-17T12:00:16;0.22;;;0.22;;
29484;SDS011;16440;59.494;17.978;2022-07-17T12:02:45;0.30;;;0.30;;
29484;SDS011;16440;59.494;17.978;2022-07-17T12:05:24;1.12;;;0.35;;
29484;SDS011;16440;59.494;17.978;2022-07-17T12:07:55;0.40;;;0.40;;
29484;SDS011;16440;59.494;17.978;2022-07-17T12:10:24;0.28;;;0.28;;
29484;SDS011;16440;59.494;17.978;2022-07-17T12:12:54;0.30;;;0.30;;
29484;SDS011;16440;59.494;17.978;2022-07-17T12:18:07;1.42;;;0.30;;
29484;SDS011;16440;59.494;17.978;2022-07-17T12:26:06;0.43;;;0.40;;
29484;SDS011;16440;59.494;17.978;2022-07-17T12:28:36;0.30;;;0.28;;
29484;SDS011;16440;59.494;17.978;2022-07-17T12:31:04;1.25;;;0.30;;
29484;SDS011;16440;59.494;17.978;2022-07-17T12:33:34;0.47;;;0.30;;
29484;SDS011;16440;59.494;17.978;2022-07-17T12:36:07;0.47;;;0.37;;
29484;SDS011;16440;59.494;17.978;2022-07-17T12:38:35;0.30;;;0.30;;
29484;SDS011;16440;59.494;17.978;2022-07-17T12:41:05;0.50;;;0.20;;
29484;SDS011;16440;59.494;17.978;2022-07-17T12:43:33;0.30;;;0.30;;
29484;SDS011;16440;59.494;17.978;2022-07-17T12:46:01;0.30;;;0.30;;
29484;SDS011;16440;59.494;17.978;2022-07-17T12:48:29;1.10;;;0.30;;
29484;SDS011;16440;59.494;17.978;2022-07-17T12:50:57;0.25;;;0.25;;
29484;SDS011;16440;59.494;17.978;2022-07-17T12:55:53;0.30;;;0.30;;
29484;SDS011;16440;59.494;17.978;2022-07-17T12:58:21;0.20;;;0.20;;
29484;SDS011;16440;59.494;17.978;2022-07-17T13:00:49;0.30;;;0.30;;
29484;SDS011;16440;59.494;17.978;2022-07-17T13:03:17;1.00;;;0.30;;
29484;SDS011;16440;59.494;17.978;2022-07-17T13:05:45;0.30;;;0.30;;
29484;SDS011;16440;59.494;17.978;2022-07-17T13:08:13;0.37;;;0.22;;
29484;SDS011;16440;59.494;17.978;2022-07-17T13:10:42;0.30;;;0.30;;
29484;SDS011;16440;59.494;17.978;2022-07-17T13:13:11;0.20;;;0.20;;
29484;SDS011;16440;59.494;17.978;2022-07-17T13:15:39;0.25;;;0.22;;
29484;SDS011;16440;59.494;17.978;2022-07-17T13:18:09;0.82;;;0.20;;
29484;SDS011;16440;59.494;17.978;2022-07-17T13:20:37;0.80;;;0.20;;
29484;SDS011;16440;59.494;17.978;2022-07-17T13:23:06;0.30;;;0.30;;
29484;SDS011;16440;59.494;17.978;2022-07-17T13:25:35;0.20;;;0.20;;
29484;SDS011;16440;59.494;17.978;2022-07-17T13:28:03;0.65;;;0.20;;
29484;SDS011;16440;59.494;17.978;2022-07-17T13:30:33;0.70;;;0.20;;
29484;SDS011;16440;59.494;17.978;2022-07-17T13:33:02;0.30;;;0.30;;
29484;SDS011;16440;59.494;17.978;2022-07-17T13:35:30;0.30;;;0.30;;
29484;SDS011;16440;59.494;17.978;2022-07-17T13:37:58;0.93;;;0.30;;
29484;SDS011;16440;59.494;17.978;2022-07-17T13:40:28;0.28;;;0.20;;
29484;SDS011;16440;59.494;17.978;2022-07-17T13:42:57;0.10;;;0.10;;
29484;SDS011;16440;59.494;17.978;2022-07-17T13:45:26;0.70;;;0.40;;
29484;SDS011;16440;59.494;17.978;2022-07-17T13:47:57;1.73;;;0.30;;
29484;SDS011;16440;59.494;17.978;2022-07-17T13:52:52;0.30;;;0.30;;
29484;SDS011;16440;59.494;17.978;2022-07-17T13:55:20;0.30;;;0.30;;
29484;SDS011;16440;59.494;17.978;2022-07-17T13:57:48;0.75;;;0.37;;
29484;SDS011;16440;59.494;17.978;2022-07-17T14:00:16;0.40;;;0.30;;
29484;SDS011;16440;59.494;17.978;2022-07-17T14:02:47;0.20;;;0.20;;
29484;SDS011;16440;59.494;17.978;2022-07-17T14:05:19;0.30;;;0.22;;
29484;SDS011;16440;59.494;17.978;2022-07-17T14:07:47;0.50;;;0.30;;
29484;SDS011;16440;59.494;17.978;2022-07-17T14:10:17;0.50;;;0.40;;
29484;SDS011;16440;59.494;17.978;2022-07-17T14:12:45;1.33;;;0.40;;
29484;SDS011;16440;59.494;17.978;2022-07-17T14:15:13;1.33;;;0.30;;
29484;SDS011;16440;59.494;17.978;2022-07-17T14:17:41;0.43;;;0.30;;
29484;SDS011;16440;59.494;17.978;2022-07-17T14:20:09;0.28;;;0.28;;
29484;SDS011;16440;59.494;17.978;2022-07-17T14:22:39;1.42;;;0.30;;
29484;SDS011;16440;59.494;17.978;2022-07-17T14:25:07;0.40;;;0.40;;
29484;SDS011;16440;59.494;17.978;2022-07-17T14:27:35;0.47;;;0.40;;
29484;SDS011;16440;59.494;17.978;2022-07-17T14:30:04;0.30;;;0.30;;
29484;SDS011;16440;59.494;17.978;2022-07-17T14:32:32;0.35;;;0.30;;
29484;SDS011;16440;59.494;17.978;2022-07-17T14:35:00;0.28;;;0.28;;
29484;SDS011;16440;59.494;17.978;2022-07-17T14:37:28;0.30;;;0.30;;
29484;SDS011;16440;59.494;17.978;2022-07-17T14:39:59;0.30;;;0.30;;
29484;SDS011;16440;59.494;17.978;2022-07-17T14:44:53;0.50;;;0.40;;
29484;SDS011;16440;59.494;17.978;2022-07-17T14:47:21;0.50;;;0.40;;
29484;SDS011;16440;59.494;17.978;2022-07-17T14:49:49;0.85;;;0.40;;
29484;SDS011;16440;59.494;17.978;2022-07-17T14:52:20;0.50;;;0.30;;
29484;SDS011;16440;59.494;17.978;2022-07-17T14:54:48;0.57;;;0.32;;
29484;SDS011;16440;59.494;17.978;2022-07-17T14:57:17;0.55;;;0.47;;
29484;SDS011;16440;59.494;17.978;2022-07-17T14:59:45;0.40;;;0.40;;
29484;SDS011;16440;59.494;17.978;2022-07-17T15:02:14;1.55;;;0.40;;
29484;SDS011;16440;59.494;17.978;2022-07-17T15:04:44;0.77;;;0.55;;
29484;SDS011;16440;59.494;17.978;2022-07-17T15:07:12;0.40;;;0.40;;
29484;SDS011;16440;59.494;17.978;2022-07-17T15:09:40;0.55;;;0.40;;
29484;SDS011;16440;59.494;17.978;2022-07-17T15:12:08;2.22;;;0.50;;
29484;SDS011;16440;59.494;17.978;2022-07-17T15:14:38;1.90;;;0.50;;
29484;SDS011;16440;59.494;17.978;2022-07-17T15:17:05;0.82;;;0.40;;